Мобильная версия
Войти

Горе ребята - ГОРИМ

 ↓ ВНИЗ

12..181920

HelpFire
Старожил форума
30.07.2010 08:55
Весь Воронеж в кольце огня. "Илюху" от Вас вчера прислали. Вроде сидят пока на Балтиморе. Тем временем .... no comment

http://www.youtube.com/watch?v ...

Авторынок вчера горел. Машины рвались, тушить даже не пытались.

http://www.youtube.com/watch?v ...

Посёлок Масловка. Горят целые улицы. (городская черта) В 2х км 8я больница, полностью сгорел вестибюль. Так же эвакуирована больница "Электроника". ЖД ветка Москва - Адлер проходит через Масловку. Поезда стоят!

http://www.youtube.com/watch?v ...

Кожевенный кордон. Там только леса и леса - заповедик одиним словом.


Беда вот такая мужики . Силы МЧС брошену на эвакуацию детских лагерей. Тушить некому, борт пока в воздухе не замечен.....да и не сделает он один не чего.
Вольный
Старожил форума
30.07.2010 08:59
Да китайци без пожара всю тайгу на дальнем востоке спилили вот это беда
HelpFire
Старожил форума
30.07.2010 09:03
Причём тут китайцы? Хуже лесных пожаров я ещё не видел. И что самое страшно, на градуснике +35 уже месяц и не капельки дождя плюс ко всему ещё ветер.
Вольный
Старожил форума
30.07.2010 09:07
Плюс 35 это средняя температура для большинства стран в мире Наконец то стало тепло А вот -55 да с ветром это гораздно хуже
HelpFire
Старожил форума
30.07.2010 09:09
Может вы и правы. Но когда начинает гореть от обычной стеклянной бутылки (которые валяются тоннами) это понастоящему страшно.
Jeppesen™
Старожил форума
30.07.2010 09:11
Шойгу ещё не уволен?
HelpFire
Старожил форума
30.07.2010 09:14
Понятия не имею. Вова, но если ты на него повлияешь, чтоб он лично приехал тушить - с меня любая, на твой выбор бутылка коньяка.
Вольный
Старожил форума
30.07.2010 09:14
Страшно что народ столько пьет если бутылки (которые валяются тоннами)
Петрович
Старожил форума
30.07.2010 09:19
В одной жаркой стране, где я был, с целью исключения перекидывания огня в дополнение к противопожарным канавам по секторам и периметру, еще укладывали негорючее стекловолоконное полотно вокруг объектов.
Дорого, но есть шанс исключения перекидывания огня. Ну и выделение постоянно дежуривших мобильных групп с порошковыми огнетушителями, брезентом и песком. Воды там не было по определению, только попить из расчета 2 литра на сутки.......
Учить тут бессмысленно, есть специально обученные люди, которые эти способы знают профессионально.
Предупредить возгорание проще, чем потом бороться с огнем. Банально, но это так....
Jeppesen™
Старожил форума
30.07.2010 09:19
HelpFire, лично он может потушить только бычок у себя на кухне или на костер пописить...
А вот то что в этой консерватории под названием МЧС надо всё менять это факт..
HelpFire
Старожил форума
30.07.2010 09:25
Госпади, да когда менять то? Дальше только Воронеж...надо чтоб она начал гореть? Тогда зачешутся?. Люди гибнут, остаются без жилья, транспорта, денег - целые посёлки. Ну неужели во всём МЧС только один борт тушить может? Даже 3 самолёта уже огромный плюс. Зато стольким странам помогаем после землятресений/наводнений/пожаров/войн.
тестер
Старожил форума
30.07.2010 09:28
To Jeppesen™:

Ну вы "взъелись" что-то на МЧС. имхо "боеготовая" служба.
Здесь, тоже, как со "здоровьем" - как-то сами "следить" должны.
Да, и костер залить и стеклянных бутылок не бросать.
Вольный
Старожил форума
30.07.2010 09:29
А у нас всегда так нигер это господин а наши люди это быдло. У нас скоро во всей авиации один самолет будет
Вольный
Старожил форума
30.07.2010 09:32
Потерпите Так говорят наши призеденты
HelpFire
Старожил форума
30.07.2010 09:32
тестер вы правы. Главная профилактика это научить быдло молодёж тушить костры и убирать мусор. Вчера ради интереса возле дома с соседом положили на хвою 2е бутылки стеклянные. через 20 минут ЗАДЫМИЛО!! А таких бутылок....
Jeppesen™
Старожил форума
30.07.2010 09:35
Бе-200 взлетел в 1998 году, где он? его нет

Вчера смотрел жалкое зрелище, заседание совета по нац.проектам, это пипец...
В роли Снежаны Денисовны - Президент, в роли учеников красные рыла с недвижимостью в Италии и Испании..был большой атата...
Петрович
Старожил форума
30.07.2010 09:35
2 HelpFire:
Вы ради интереса поинтересуйтесь, как БЕ200 один раз налетел на топляк во время забора воды на глиссировании и потом надолго встал.
Да и закачать в ИЛ76 40 тонн воды тоже нужно время, плюс взле\посадка, наличие самой воды и средств ее доставки и перекачки.
Да и этих машин у нас меньше, чем пальцев на одной руке.
Слава ЕР!
asupshik
Старожил форума
30.07.2010 09:40
Да чем тушить то? Техники и людей нет. Леса никто не прорежает. Два года назад Шойгу и ВВП за компанию могли только ерничать по поводу пожаров в Калифорнии. Разница только в том, что в Калифорнии круглогодично работают лесники и дымят управляемые пожары, что предотвратить катастрофы. А Шойгу в этом время может только геройствовать после ликвидации очередного ЧП, а делать что-то для предотвращения или профилактики... это для американцев, пусть они этим занимаются.
HelpFire
Старожил форума
30.07.2010 09:41
Слава ЕР
----------
нет слов. Я думал для такой страный с её огромными лесными землями, ну ни как не меньше 50 пожарных самолётов.

Трасса ДОН опять перекрыта :( Смотрю в окно, дым километров на 5 поднимается - стеной. немцы на Ленинград такой стеной плотное не наступали.
HeliCap
Старожил форума
30.07.2010 09:41
Рекомендую вашим лесникам съездить на Алтай по обмену опытом-здесь лучшая из систем лесоохраны из всех, что я видел.Создали после таких же вот пожаров с человеческими жертвами...
Вольный
Старожил форума
30.07.2010 09:42
Бе 200 варвары уже наверное на цветмет пилят Как в Красноярске кипит работа жужжат болгарки
HelpFire
Старожил форума
30.07.2010 09:45
Щас деток на автобусах вывозят с лагерей. Пока есть где проехать.
Migelitto
Старожил форума
30.07.2010 09:45
А армию привлечь? Инженерные войска... этого тоже уже нет?
Вольный
Старожил форума
30.07.2010 09:47
И опять горят русские хаты
AER
Старожил форума
30.07.2010 09:49
UUOO 300530Z 00000MPS 0500 FU BKN050 25/14 Q1017 NOSIG RMK 13090070=
UUOO 300500Z VRB01MPS 0400 FU BKN050 23/15 Q1017 NOSIG RMK 13090070=
UUOO 300430Z VRB01MPS 0600 FU BKN050 23/15 Q1017 NOSIG RMK 13090070=
UUOO 300400Z VRB01MPS 0700 FU BKN050 22/15 Q1017 NOSIG RMK 13090070=
UUOO 300330Z VRB02MPS 0700 FU BKN050 21/15 Q1016 NOSIG RMK 13090070=
UUOO 300300Z 00000MPS 0700 FU SCT033CB BKN100 19/15 Q1016 NOSIG RMK 13090070=
UUOO 300230Z 00000MPS 1000 FU SCT033CB BKN100 18/15 Q1016 NOSIG RMK 13090070=
UUOO 300200Z 00000MPS 1000 FU SCT033CB BKN100 18/15 Q1016 NOSIG RMK 13090070=
UUOO 300130Z VRB01MPS 1000 R13/1000N FU SCT033CB BKN100 19/15 Q1015 NOSIG RMK 13090070=
UUOO 300100Z 00000MPS 1000 R13/1300N FU SCT033CB BKN100 20/15 Q1015 NOSIG RMK 13090070=
UUOO 300030Z VRB01MPS 1100 R13/1400N FU FEW033CB BKN100 20/15 Q1015 NOSIG RMK 13090070=
UUOO 300000Z 00000MPS 1300 R13/P1500N FU FEW033CB BKN100 20/15 Q1015 NOSIG RMK 13090070=
Мда, 500м в дыме - сильно...
HelpFire
Старожил форума
30.07.2010 09:50
Вольный
Старожил форума
30.07.2010 09:52
Да а температура далеко не 35
Фотограф
Старожил форума
30.07.2010 09:54
Тушить некому, борт пока в воздухе не замечен.....да и не сделает он один не чего.
HelpFire:

У Вас работают ДВА борта МЧС Ил-76ТД. Позывные 845 и 363.


Бе-200 взлетел в 1998 году, где он? его нет
Jeppesen™:

Бе 200 варвары уже наверное на цветмет пилят
Вольный:

Бе-200 , бортовые номера RF-32767 и RF-32768 работают по пожарам в Нижегородской области.
HelpFire
Старожил форума
30.07.2010 09:55
На данный момент +30. Градусник в тени но и время - ещё десяти нет.
Director
Старожил форума
30.07.2010 09:55
Да, стихия, блин...
Посмотрел прогноз на следующую неделю - 40-43 в Воронеже. Держитесь!
Viktor49A
Старожил форума
30.07.2010 10:16
HelpFire:

Помоги ВАМ Всевышний !

Страшная стихия - пожар в лесах. А если ещё и сильный ветер, тогда совсем "труба" - силища, одолеть которую, практически очень и очень сложно.
В хвойных лесах просто бешеная скорость распространения, а при больших площадях возгорания появляются дополнительные вихри, которые швыряют горящие ветки, как щепки за сотни метров а то и больше, поджигая ещё не загоревшееся.
И когда на такой территории есть населенные пункты, встречный пал ведь не устроишь, а другого выхода при таких масштабах на ум не приходит. Если только природа не сжалится, и не даст ливень на день.
Парадокс из жизни: разогнать тучки для парадов можем, а вот собрать их, для дождика - слабо.
шурави
Старожил форума
30.07.2010 11:44
2 Петрович:

2 HelpFire:
Вы ради интереса поинтересуйтесь, как БЕ200 один раз налетел на топляк во время забора воды на глиссировании и потом надолго встал.
Да и закачать в ИЛ76 40 тонн воды тоже нужно время, плюс взле\посадка, наличие самой воды и средств ее доставки и перекачки.
Да и этих машин у нас меньше, чем пальцев на одной руке.
Слава ЕР!

Да, здесь бы вертолётами, да где же их взять, всё же нахрен сократили.
Транспортный вертолётный полк в Ефремове, ликвидирован, вертолётный полк в Туле, ликвидирован.
вта
Старожил форума
30.07.2010 11:49
Володя! Ну чего тут рассуждать, сидя у меня за стенкой? :-)))
Осталось тока в холодильник те идти, там холодное стоит!
Alex Skyboy
Старожил форума
30.07.2010 12:00
Держитесь братья!!!

P.S. Один из самых моих любимых городов русских.
Г.Ф.
Старожил форума
30.07.2010 12:29
Уже давно пора организовывать полк Бе-200 при МЧС.
Тысячу раз он себя бы уже оправдал.
шурави
Старожил форума
30.07.2010 12:30
2 вта:

Володя! Ну чего тут рассуждать, сидя у меня за стенкой? :-)))
Осталось тока в холодильник те идти, там холодное стоит!

Что стоит?
Воищев Владимир
Старожил форума
30.07.2010 12:33
Все, Ильха летает над лесом!!! Был сейчас на пожарище, в Масловке, где сгорело 140 домов..... Страшное зрелище. Люди сидят на узлах (кто успел что то вынести), одна бабуля сидит с иконой молится.... Сенни Шойгу прилетает решать как сохранить что осталось......
Воищев Владимир
Старожил форума
30.07.2010 12:36
Очередной раз убеждаюсь что человек перед стихией божья коровка.......
Петрович
Старожил форума
30.07.2010 12:39
Володь, привет.
Можно подумать, что Шойгу теперь вместо Святого Николая Угодника взлядом огонь останавливает.
Тебе самому не грустно? Лучше бы он вообще не летал, а сидел и тихонько координиловал (пил водку) в Москве от греха подальше.
Раньше надо было профилактикой заниматься, а теперь руками махать и Звездой героя звенеть поздно(((((((((((
Saray
Старожил форума
30.07.2010 12:43
Сами Воронежцы виноваты-за кого боролись, на то и напоролись
Воищев Владимир
Старожил форума
30.07.2010 12:46
Петрович: Ген, так я про тоже...Мне не то что грустно, мне просто п.... У меня у зама родственники погорели, так они реаль говорили что люди стояли, смотрели как горит их дом и молятся, потому что больше помощи ждать не откуда. Приехали два пожарки когда почти все сгорело(((((((
Петрович
Старожил форума
30.07.2010 12:52
Володь, а тем временем "Пожтехника" на 15% подняла цены на порошковые бытовые и промышленные огнетушители. По моему разумению их надо вагонами отправлять в места пожаров, а не жопиться и не мариновать их на складах.
В общем, кому сойна, а кому мать родна(((((((((((((((((((((((((((((((((
Противно....
А еще противней от того, что один раз узнал горькую правду, когда у человека горел огромный склад, забитый под крышу. Пожарники приехали и вместо того, чтобы сразу начать тушить их начштаба ласково поинтересовался, сколько денег хозяин добра даст за оперативное тушение.
Вот тут простопесец((((((((((((((((
Alex Skyboy
Старожил форума
30.07.2010 12:53
2
Saray:

Сами Воронежцы виноваты-за кого боролись, на то и напоролись


Не угомонишься никак?
У людей горе!!!
Не суди кто виноват, правов таких нет у тебя.
HelpFire
Старожил форума
30.07.2010 12:58
Только что приезжал батя. У него в Масловке склад. Говорит на всю Масловку было 2 пожарные машины.....но там хоть поезд пожарный подъехать мог. Когда авторынок горел там ещё хуже..подъездов нет! Щас оба борта работают по Сомово и Боровому. В Масловке сгорело 150 домов!!!


По поводу молитв. Там церквушка в Масловке..батюшка вторые сутки один молится.

Всех жалко. Но что делать пожилым людям?! Всё сгорело!

Кожевенный так и не потушили - полыхает.
Слава
Старожил форума
30.07.2010 12:58
Блин...Жара стоит уж не первый месяц, дождей нет...Неужели нельзя было подготовится??
Воищев Владимир
Старожил форума
30.07.2010 13:03
Да и самоли могли бы вчера утром еще прислать, что экипажи собрать не могли что ли? Я помню нас на землятрисение 7 бортов за два часа организовали, хотя та уже спешить некуда было. Они по ящику говорят что все силы были брошены на пионерские лагеря, короче сейчас шапки полетят, а ни чего не изменится......((((((((
Saray
Старожил форума
30.07.2010 13:03
Я знаю, что такое пожар, сам испытал, я не злорадствую ни в коем разе, просто вопрос, а где пожарные? Почему не отловили поджигателей. А вы Алекс Небесный мальчик, когда в Воронеже последний раз были? Про драку в лагере Дон в Туапсе все знаю и все слышали!? А что народ поднялся кто-то слышал? Тишина, а почему самим Воронежцам не бить в набат! или взять в руки лопату. Кто допустил до верхового пожара?
Saray
Старожил форума
30.07.2010 13:07
Я больше скажу-вез детишек в мешках черных, которые сгорели в Якутии в Вилюйском районе, как ребята вертолетчики возили их, и знаю как пахнет после этого самолет
оБМ
Старожил форума
30.07.2010 13:15
Не суди кто виноват, правов таких нет у тебя.

Есть.У всего народа есть.Гнать их поганой метлой всех, Вместе с этой ЕР.
HelpFire
Старожил форума
30.07.2010 13:15
Saray Почему у вас такое отношение к нам? Горят не только воронежские земли. Тут просто это очень печально всё. Нижегородщина тоже нехило полыхает.
12..181920





 

 

 

 

← На главную страницу

Чтобы публиковать комментарии, вы должны войти на сайт.

Реклама на сайте Обратная связь/Связаться с администрацией
Рейтинг@Mail.ru